sensor_id;sensor_type;location;lat;lon;timestamp;P1;durP1;ratioP1;P2;durP2;ratioP2
41693;SDS011;27377;50.666;9.150;2023-05-01T00:02:12;5.23;;;2.97;;
41693;SDS011;27377;50.666;9.150;2023-05-01T00:04:38;6.60;;;3.00;;
41693;SDS011;27377;50.666;9.150;2023-05-01T00:07:03;9.67;;;3.20;;
41693;SDS011;27377;50.666;9.150;2023-05-01T00:09:29;6.50;;;2.90;;
41693;SDS011;27377;50.666;9.150;2023-05-01T00:11:56;6.75;;;2.63;;
41693;SDS011;27377;50.666;9.150;2023-05-01T00:14:21;7.75;;;3.05;;
41693;SDS011;27377;50.666;9.150;2023-05-01T00:16:47;7.32;;;3.20;;
41693;SDS011;27377;50.666;9.150;2023-05-01T00:19:12;6.28;;;3.05;;
41693;SDS011;27377;50.666;9.150;2023-05-01T00:21:42;6.25;;;3.10;;
41693;SDS011;27377;50.666;9.150;2023-05-01T00:24:09;8.98;;;3.45;;
41693;SDS011;27377;50.666;9.150;2023-05-01T00:26:35;6.35;;;3.30;;
41693;SDS011;27377;50.666;9.150;2023-05-01T00:29:01;5.88;;;3.20;;
41693;SDS011;27377;50.666;9.150;2023-05-01T00:31:27;7.60;;;3.37;;
41693;SDS011;27377;50.666;9.150;2023-05-01T00:33:52;6.85;;;3.17;;
41693;SDS011;27377;50.666;9.150;2023-05-01T00:36:18;7.85;;;3.30;;
41693;SDS011;27377;50.666;9.150;2023-05-01T00:38:44;8.15;;;3.30;;
41693;SDS011;27377;50.666;9.150;2023-05-01T00:41:10;6.38;;;3.38;;
41693;SDS011;27377;50.666;9.150;2023-05-01T00:43:36;7.05;;;3.08;;
41693;SDS011;27377;50.666;9.150;2023-05-01T00:46:01;7.63;;;3.10;;
41693;SDS011;27377;50.666;9.150;2023-05-01T00:48:27;7.97;;;3.20;;
41693;SDS011;27377;50.666;9.150;2023-05-01T00:50:53;7.70;;;3.10;;
41693;SDS011;27377;50.666;9.150;2023-05-01T00:53:20;6.57;;;2.92;;
41693;SDS011;27377;50.666;9.150;2023-05-01T00:55:47;6.93;;;2.80;;
41693;SDS011;27377;50.666;9.150;2023-05-01T00:58:13;6.22;;;2.80;;
41693;SDS011;27377;50.666;9.150;2023-05-01T01:00:41;7.00;;;2.83;;
41693;SDS011;27377;50.666;9.150;2023-05-01T01:03:07;5.50;;;2.90;;
41693;SDS011;27377;50.666;9.150;2023-05-01T01:05:34;8.23;;;2.78;;
41693;SDS011;27377;50.666;9.150;2023-05-01T01:08:26;6.63;;;3.00;;
41693;SDS011;27377;50.666;9.150;2023-05-01T01:13:33;6.63;;;2.70;;
41693;SDS011;27377;50.666;9.150;2023-05-01T01:16:11;5.63;;;3.15;;
41693;SDS011;27377;50.666;9.150;2023-05-01T01:18:55;8.15;;;2.75;;
41693;SDS011;27377;50.666;9.150;2023-05-01T01:21:42;5.50;;;2.83;;
41693;SDS011;27377;50.666;9.150;2023-05-01T01:24:22;6.45;;;2.60;;
41693;SDS011;27377;50.666;9.150;2023-05-01T01:35:52;6.10;;;2.90;;
41693;SDS011;27377;50.666;9.150;2023-05-01T01:38:28;5.85;;;2.60;;
41693;SDS011;27377;50.666;9.150;2023-05-01T01:41:09;6.63;;;2.85;;
41693;SDS011;27377;50.666;9.150;2023-05-01T01:43:41;6.00;;;3.30;;
41693;SDS011;27377;50.666;9.150;2023-05-01T01:46:13;5.85;;;3.13;;
41693;SDS011;27377;50.666;9.150;2023-05-01T01:48:41;8.00;;;2.80;;
41693;SDS011;27377;50.666;9.150;2023-05-01T01:51:15;6.22;;;2.90;;
41693;SDS011;27377;50.666;9.150;2023-05-01T01:53:48;7.35;;;2.60;;
41693;SDS011;27377;50.666;9.150;2023-05-01T01:56:18;5.90;;;2.80;;
41693;SDS011;27377;50.666;9.150;2023-05-01T01:58:47;5.70;;;2.60;;
41693;SDS011;27377;50.666;9.150;2023-05-01T02:01:15;4.75;;;2.38;;
41693;SDS011;27377;50.666;9.150;2023-05-01T02:03:45;6.30;;;2.40;;
41693;SDS011;27377;50.666;9.150;2023-05-01T02:06:11;6.20;;;2.65;;
41693;SDS011;27377;50.666;9.150;2023-05-01T02:08:39;4.90;;;2.45;;
41693;SDS011;27377;50.666;9.150;2023-05-01T02:11:06;6.70;;;2.40;;
41693;SDS011;27377;50.666;9.150;2023-05-01T02:13:32;9.55;;;2.53;;
41693;SDS011;27377;50.666;9.150;2023-05-01T02:16:02;4.93;;;2.50;;
41693;SDS011;27377;50.666;9.150;2023-05-01T02:18:33;5.50;;;2.60;;
41693;SDS011;27377;50.666;9.150;2023-05-01T02:21:00;5.87;;;2.50;;
41693;SDS011;27377;50.666;9.150;2023-05-01T02:23:29;6.03;;;2.67;;
41693;SDS011;27377;50.666;9.150;2023-05-01T02:25:56;5.22;;;2.60;;
41693;SDS011;27377;50.666;9.150;2023-05-01T02:28:24;8.20;;;2.90;;
41693;SDS011;27377;50.666;9.150;2023-05-01T02:30:52;5.68;;;3.05;;
41693;SDS011;27377;50.666;9.150;2023-05-01T02:33:17;6.60;;;3.00;;
41693;SDS011;27377;50.666;9.150;2023-05-01T02:35:43;6.73;;;2.50;;
41693;SDS011;27377;50.666;9.150;2023-05-01T02:38:13;6.20;;;2.72;;
41693;SDS011;27377;50.666;9.150;2023-05-01T02:40:40;6.28;;;2.47;;
41693;SDS011;27377;50.666;9.150;2023-05-01T02:43:11;6.22;;;2.47;;
41693;SDS011;27377;50.666;9.150;2023-05-01T02:45:40;6.45;;;2.60;;
41693;SDS011;27377;50.666;9.150;2023-05-01T02:48:08;5.03;;;2.70;;
41693;SDS011;27377;50.666;9.150;2023-05-01T02:50:37;7.22;;;2.97;;
41693;SDS011;27377;50.666;9.150;2023-05-01T02:53:06;5.25;;;2.65;;
41693;SDS011;27377;50.666;9.150;2023-05-01T02:55:32;4.93;;;2.73;;
41693;SDS011;27377;50.666;9.150;2023-05-01T02:57:59;5.43;;;2.33;;
41693;SDS011;27377;50.666;9.150;2023-05-01T03:00:25;5.73;;;2.53;;
41693;SDS011;27377;50.666;9.150;2023-05-01T03:02:51;5.35;;;2.40;;
41693;SDS011;27377;50.666;9.150;2023-05-01T03:05:17;6.45;;;2.60;;
41693;SDS011;27377;50.666;9.150;2023-05-01T03:07:43;5.78;;;2.53;;
41693;SDS011;27377;50.666;9.150;2023-05-01T03:10:10;4.95;;;2.50;;
41693;SDS011;27377;50.666;9.150;2023-05-01T03:12:35;4.90;;;2.50;;
41693;SDS011;27377;50.666;9.150;2023-05-01T03:15:01;5.90;;;2.65;;
41693;SDS011;27377;50.666;9.150;2023-05-01T03:17:27;6.28;;;2.65;;
41693;SDS011;27377;50.666;9.150;2023-05-01T03:19:53;6.47;;;2.90;;
41693;SDS011;27377;50.666;9.150;2023-05-01T03:22:19;5.83;;;2.90;;
41693;SDS011;27377;50.666;9.150;2023-05-01T03:24:44;5.77;;;2.77;;
41693;SDS011;27377;50.666;9.150;2023-05-01T03:27:11;7.07;;;2.90;;
41693;SDS011;27377;50.666;9.150;2023-05-01T03:29:37;5.37;;;2.70;;
41693;SDS011;27377;50.666;9.150;2023-05-01T03:32:03;6.20;;;2.75;;
41693;SDS011;27377;50.666;9.150;2023-05-01T03:34:29;5.90;;;2.80;;
41693;SDS011;27377;50.666;9.150;2023-05-01T03:36:54;6.60;;;2.93;;
41693;SDS011;27377;50.666;9.150;2023-05-01T03:39:20;5.70;;;2.67;;
41693;SDS011;27377;50.666;9.150;2023-05-01T03:41:46;6.38;;;2.53;;
41693;SDS011;27377;50.666;9.150;2023-05-01T03:44:12;5.73;;;2.50;;
41693;SDS011;27377;50.666;9.150;2023-05-01T03:46:37;5.27;;;2.80;;
41693;SDS011;27377;50.666;9.150;2023-05-01T03:49:03;5.33;;;2.60;;
41693;SDS011;27377;50.666;9.150;2023-05-01T03:51:28;7.47;;;2.97;;
41693;SDS011;27377;50.666;9.150;2023-05-01T03:53:54;6.33;;;2.73;;
41693;SDS011;27377;50.666;9.150;2023-05-01T03:56:26;6.30;;;2.78;;
41693;SDS011;27377;50.666;9.150;2023-05-01T03:58:52;7.30;;;2.78;;
41693;SDS011;27377;50.666;9.150;2023-05-01T04:01:18;7.23;;;3.07;;
41693;SDS011;27377;50.666;9.150;2023-05-01T04:03:43;7.93;;;2.80;;
41693;SDS011;27377;50.666;9.150;2023-05-01T04:06:10;8.02;;;2.85;;
41693;SDS011;27377;50.666;9.150;2023-05-01T04:08:36;7.47;;;2.92;;
41693;SDS011;27377;50.666;9.150;2023-05-01T04:11:01;6.20;;;2.83;;
41693;SDS011;27377;50.666;9.150;2023-05-01T04:13:27;6.03;;;2.78;;
41693;SDS011;27377;50.666;9.150;2023-05-01T04:15:52;6.82;;;2.92;;
41693;SDS011;27377;50.666;9.150;2023-05-01T04:18:21;5.68;;;2.80;;
41693;SDS011;27377;50.666;9.150;2023-05-01T04:20:47;7.27;;;2.67;;
41693;SDS011;27377;50.666;9.150;2023-05-01T04:23:12;7.63;;;2.50;;
41693;SDS011;27377;50.666;9.150;2023-05-01T04:25:38;8.47;;;2.97;;
41693;SDS011;27377;50.666;9.150;2023-05-01T04:28:03;7.33;;;2.77;;
41693;SDS011;27377;50.666;9.150;2023-05-01T04:30:32;6.97;;;2.87;;
41693;SDS011;27377;50.666;9.150;2023-05-01T04:32:57;7.25;;;2.80;;
41693;SDS011;27377;50.666;9.150;2023-05-01T04:35:23;8.23;;;3.27;;
41693;SDS011;27377;50.666;9.150;2023-05-01T04:37:49;8.05;;;3.00;;
41693;SDS011;27377;50.666;9.150;2023-05-01T04:40:15;8.82;;;3.13;;
41693;SDS011;27377;50.666;9.150;2023-05-01T04:42:41;6.93;;;2.78;;
41693;SDS011;27377;50.666;9.150;2023-05-01T04:45:07;6.97;;;3.17;;
41693;SDS011;27377;50.666;9.150;2023-05-01T04:47:33;10.40;;;3.10;;
41693;SDS011;27377;50.666;9.150;2023-05-01T04:49:58;6.20;;;2.85;;
41693;SDS011;27377;50.666;9.150;2023-05-01T04:52:24;6.95;;;3.00;;
41693;SDS011;27377;50.666;9.150;2023-05-01T04:54:50;7.18;;;2.95;;
41693;SDS011;27377;50.666;9.150;2023-05-01T04:57:15;7.60;;;2.90;;
41693;SDS011;27377;50.666;9.150;2023-05-01T04:59:41;7.70;;;2.90;;
41693;SDS011;27377;50.666;9.150;2023-05-01T05:02:07;9.07;;;3.25;;
41693;SDS011;27377;50.666;9.150;2023-05-01T05:04:32;9.03;;;2.90;;
41693;SDS011;27377;50.666;9.150;2023-05-01T05:06:58;5.97;;;3.00;;
41693;SDS011;27377;50.666;9.150;2023-05-01T05:09:24;6.13;;;3.17;;
41693;SDS011;27377;50.666;9.150;2023-05-01T05:11:49;7.10;;;3.20;;
41693;SDS011;27377;50.666;9.150;2023-05-01T05:14:15;8.43;;;3.57;;
41693;SDS011;27377;50.666;9.150;2023-05-01T05:16:40;9.50;;;3.27;;
41693;SDS011;27377;50.666;9.150;2023-05-01T05:19:06;8.30;;;2.90;;
41693;SDS011;27377;50.666;9.150;2023-05-01T05:21:31;7.40;;;3.03;;
41693;SDS011;27377;50.666;9.150;2023-05-01T05:23:57;6.30;;;2.70;;
41693;SDS011;27377;50.666;9.150;2023-05-01T05:26:22;5.28;;;2.83;;
41693;SDS011;27377;50.666;9.150;2023-05-01T05:28:50;7.90;;;3.00;;
41693;SDS011;27377;50.666;9.150;2023-05-01T05:31:16;6.50;;;2.75;;
41693;SDS011;27377;50.666;9.150;2023-05-01T05:33:41;7.25;;;2.88;;
41693;SDS011;27377;50.666;9.150;2023-05-01T05:36:08;7.55;;;3.10;;
41693;SDS011;27377;50.666;9.150;2023-05-01T05:38:34;6.67;;;3.10;;
41693;SDS011;27377;50.666;9.150;2023-05-01T05:40:59;7.73;;;3.00;;
41693;SDS011;27377;50.666;9.150;2023-05-01T05:43:25;8.18;;;3.03;;
41693;SDS011;27377;50.666;9.150;2023-05-01T05:45:55;6.78;;;3.25;;
41693;SDS011;27377;50.666;9.150;2023-05-01T05:48:21;7.03;;;3.10;;
41693;SDS011;27377;50.666;9.150;2023-05-01T05:50:46;7.00;;;3.07;;
41693;SDS011;27377;50.666;9.150;2023-05-01T05:53:14;6.55;;;3.00;;
41693;SDS011;27377;50.666;9.150;2023-05-01T05:55:40;6.97;;;2.80;;
41693;SDS011;27377;50.666;9.150;2023-05-01T05:58:07;6.82;;;2.80;;
41693;SDS011;27377;50.666;9.150;2023-05-01T06:00:32;9.23;;;3.27;;
41693;SDS011;27377;50.666;9.150;2023-05-01T06:02:58;17.20;;;8.60;;
41693;SDS011;27377;50.666;9.150;2023-05-01T06:05:23;18.23;;;9.10;;
41693;SDS011;27377;50.666;9.150;2023-05-01T06:07:49;11.83;;;5.77;;
41693;SDS011;27377;50.666;9.150;2023-05-01T06:10:15;9.73;;;4.30;;
41693;SDS011;27377;50.666;9.150;2023-05-01T06:12:41;7.78;;;3.30;;
41693;SDS011;27377;50.666;9.150;2023-05-01T06:15:06;6.07;;;3.17;;
41693;SDS011;27377;50.666;9.150;2023-05-01T06:17:32;7.95;;;3.38;;
41693;SDS011;27377;50.666;9.150;2023-05-01T06:19:59;7.32;;;3.00;;
41693;SDS011;27377;50.666;9.150;2023-05-01T06:22:25;7.17;;;2.90;;
41693;SDS011;27377;50.666;9.150;2023-05-01T06:24:51;7.43;;;3.25;;
41693;SDS011;27377;50.666;9.150;2023-05-01T06:27:17;6.90;;;3.40;;
41693;SDS011;27377;50.666;9.150;2023-05-01T06:29:42;9.32;;;3.45;;
41693;SDS011;27377;50.666;9.150;2023-05-01T06:32:08;7.63;;;3.22;;
41693;SDS011;27377;50.666;9.150;2023-05-01T06:34:33;8.40;;;3.60;;
41693;SDS011;27377;50.666;9.150;2023-05-01T06:36:59;9.15;;;3.53;;
41693;SDS011;27377;50.666;9.150;2023-05-01T06:39:24;7.93;;;3.50;;
41693;SDS011;27377;50.666;9.150;2023-05-01T06:41:50;9.37;;;3.50;;
41693;SDS011;27377;50.666;9.150;2023-05-01T06:44:15;8.20;;;3.47;;
41693;SDS011;27377;50.666;9.150;2023-05-01T06:46:41;8.20;;;3.60;;
41693;SDS011;27377;50.666;9.150;2023-05-01T06:49:06;7.47;;;3.40;;
41693;SDS011;27377;50.666;9.150;2023-05-01T06:51:32;8.17;;;3.37;;
41693;SDS011;27377;50.666;9.150;2023-05-01T06:53:58;8.13;;;4.30;;
41693;SDS011;27377;50.666;9.150;2023-05-01T06:56:23;8.52;;;4.15;;
41693;SDS011;27377;50.666;9.150;2023-05-01T06:58:49;10.15;;;4.65;;
41693;SDS011;27377;50.666;9.150;2023-05-01T07:01:15;9.13;;;4.07;;
41693;SDS011;27377;50.666;9.150;2023-05-01T07:03:41;7.97;;;4.20;;
41693;SDS011;27377;50.666;9.150;2023-05-01T07:06:06;7.72;;;3.78;;
41693;SDS011;27377;50.666;9.150;2023-05-01T07:08:32;7.03;;;3.60;;
41693;SDS011;27377;50.666;9.150;2023-05-01T07:10:57;7.83;;;3.63;;
41693;SDS011;27377;50.666;9.150;2023-05-01T07:13:23;7.65;;;3.65;;
41693;SDS011;27377;50.666;9.150;2023-05-01T07:15:49;8.35;;;3.63;;
41693;SDS011;27377;50.666;9.150;2023-05-01T07:18:15;6.72;;;3.60;;
41693;SDS011;27377;50.666;9.150;2023-05-01T07:20:41;7.72;;;3.50;;
41693;SDS011;27377;50.666;9.150;2023-05-01T07:23:07;6.50;;;3.33;;
41693;SDS011;27377;50.666;9.150;2023-05-01T07:25:33;6.68;;;3.40;;
41693;SDS011;27377;50.666;9.150;2023-05-01T07:28:02;7.18;;;3.40;;
41693;SDS011;27377;50.666;9.150;2023-05-01T07:30:29;5.67;;;3.13;;
41693;SDS011;27377;50.666;9.150;2023-05-01T07:32:56;7.43;;;3.55;;
41693;SDS011;27377;50.666;9.150;2023-05-01T07:35:25;6.93;;;3.55;;
41693;SDS011;27377;50.666;9.150;2023-05-01T07:37:51;10.07;;;3.70;;
41693;SDS011;27377;50.666;9.150;2023-05-01T07:40:17;7.20;;;3.53;;
41693;SDS011;27377;50.666;9.150;2023-05-01T07:42:43;8.77;;;3.80;;
41693;SDS011;27377;50.666;9.150;2023-05-01T07:45:11;6.90;;;3.80;;
41693;SDS011;27377;50.666;9.150;2023-05-01T07:47:36;8.33;;;4.20;;
41693;SDS011;27377;50.666;9.150;2023-05-01T07:50:02;8.83;;;4.20;;
41693;SDS011;27377;50.666;9.150;2023-05-01T07:52:28;10.57;;;5.10;;
41693;SDS011;27377;50.666;9.150;2023-05-01T07:54:54;8.40;;;4.43;;
41693;SDS011;27377;50.666;9.150;2023-05-01T07:57:20;8.50;;;4.30;;
41693;SDS011;27377;50.666;9.150;2023-05-01T07:59:47;10.02;;;4.80;;
41693;SDS011;27377;50.666;9.150;2023-05-01T08:02:15;9.35;;;4.97;;
41693;SDS011;27377;50.666;9.150;2023-05-01T08:04:41;12.05;;;5.03;;
41693;SDS011;27377;50.666;9.150;2023-05-01T08:07:07;8.67;;;5.00;;
41693;SDS011;27377;50.666;9.150;2023-05-01T08:09:32;7.53;;;4.50;;
41693;SDS011;27377;50.666;9.150;2023-05-01T08:11:58;9.10;;;4.97;;
41693;SDS011;27377;50.666;9.150;2023-05-01T08:14:24;9.43;;;5.00;;
41693;SDS011;27377;50.666;9.150;2023-05-01T08:16:50;9.77;;;5.45;;
41693;SDS011;27377;50.666;9.150;2023-05-01T08:19:19;10.80;;;6.15;;
41693;SDS011;27377;50.666;9.150;2023-05-01T08:21:44;11.23;;;5.60;;
41693;SDS011;27377;50.666;9.150;2023-05-01T08:24:10;10.70;;;5.83;;
41693;SDS011;27377;50.666;9.150;2023-05-01T08:26:36;9.33;;;5.97;;
41693;SDS011;27377;50.666;9.150;2023-05-01T08:29:01;12.13;;;6.70;;
41693;SDS011;27377;50.666;9.150;2023-05-01T08:31:27;17.20;;;10.05;;
41693;SDS011;27377;50.666;9.150;2023-05-01T08:33:52;10.95;;;7.47;;
41693;SDS011;27377;50.666;9.150;2023-05-01T08:36:18;13.40;;;8.18;;
41693;SDS011;27377;50.666;9.150;2023-05-01T08:38:44;11.38;;;6.80;;
41693;SDS011;27377;50.666;9.150;2023-05-01T08:41:09;9.48;;;5.93;;
41693;SDS011;27377;50.666;9.150;2023-05-01T08:43:40;10.00;;;5.90;;
41693;SDS011;27377;50.666;9.150;2023-05-01T08:46:07;9.70;;;6.00;;
41693;SDS011;27377;50.666;9.150;2023-05-01T08:48:35;10.43;;;5.78;;
41693;SDS011;27377;50.666;9.150;2023-05-01T08:51:02;10.27;;;5.40;;
41693;SDS011;27377;50.666;9.150;2023-05-01T08:53:29;10.17;;;5.77;;
41693;SDS011;27377;50.666;9.150;2023-05-01T08:55:56;8.77;;;5.25;;
41693;SDS011;27377;50.666;9.150;2023-05-01T08:58:24;8.02;;;4.88;;
41693;SDS011;27377;50.666;9.150;2023-05-01T09:00:52;8.38;;;4.53;;
41693;SDS011;27377;50.666;9.150;2023-05-01T09:03:22;9.95;;;4.63;;
41693;SDS011;27377;50.666;9.150;2023-05-01T09:05:48;7.15;;;4.30;;
41693;SDS011;27377;50.666;9.150;2023-05-01T09:08:16;9.52;;;4.70;;
41693;SDS011;27377;50.666;9.150;2023-05-01T09:10:43;7.13;;;4.07;;
41693;SDS011;27377;50.666;9.150;2023-05-01T09:13:11;8.02;;;4.43;;
41693;SDS011;27377;50.666;9.150;2023-05-01T09:15:36;6.57;;;4.10;;
41693;SDS011;27377;50.666;9.150;2023-05-01T09:18:02;6.10;;;4.00;;
41693;SDS011;27377;50.666;9.150;2023-05-01T09:20:28;7.80;;;3.70;;
41693;SDS011;27377;50.666;9.150;2023-05-01T09:22:54;6.50;;;3.83;;
41693;SDS011;27377;50.666;9.150;2023-05-01T09:25:23;7.03;;;3.95;;
41693;SDS011;27377;50.666;9.150;2023-05-01T09:27:48;6.67;;;3.70;;
41693;SDS011;27377;50.666;9.150;2023-05-01T09:30:31;6.05;;;3.70;;
41693;SDS011;27377;50.666;9.150;2023-05-01T09:33:04;7.38;;;3.97;;
41693;SDS011;27377;50.666;9.150;2023-05-01T09:35:29;5.50;;;3.40;;
41693;SDS011;27377;50.666;9.150;2023-05-01T09:37:56;6.28;;;3.70;;
41693;SDS011;27377;50.666;9.150;2023-05-01T09:40:25;7.50;;;3.85;;
41693;SDS011;27377;50.666;9.150;2023-05-01T09:42:52;6.82;;;3.80;;
41693;SDS011;27377;50.666;9.150;2023-05-01T09:45:20;6.85;;;3.67;;
41693;SDS011;27377;50.666;9.150;2023-05-01T09:47:47;5.97;;;3.42;;
41693;SDS011;27377;50.666;9.150;2023-05-01T09:50:29;5.30;;;3.40;;
41693;SDS011;27377;50.666;9.150;2023-05-01T09:52:56;6.40;;;3.40;;
41693;SDS011;27377;50.666;9.150;2023-05-01T09:55:22;6.65;;;3.38;;
41693;SDS011;27377;50.666;9.150;2023-05-01T09:57:48;6.13;;;3.42;;
41693;SDS011;27377;50.666;9.150;2023-05-01T10:00:14;6.17;;;3.40;;
41693;SDS011;27377;50.666;9.150;2023-05-01T10:02:41;6.03;;;3.38;;
41693;SDS011;27377;50.666;9.150;2023-05-01T10:05:08;6.30;;;3.53;;
41693;SDS011;27377;50.666;9.150;2023-05-01T10:07:35;6.28;;;3.38;;
41693;SDS011;27377;50.666;9.150;2023-05-01T10:10:17;5.80;;;3.38;;
41693;SDS011;27377;50.666;9.150;2023-05-01T10:12:43;5.18;;;3.33;;
41693;SDS011;27377;50.666;9.150;2023-05-01T10:15:09;6.37;;;3.30;;
41693;SDS011;27377;50.666;9.150;2023-05-01T10:17:35;5.25;;;3.38;;
41693;SDS011;27377;50.666;9.150;2023-05-01T10:20:05;6.28;;;3.60;;
41693;SDS011;27377;50.666;9.150;2023-05-01T10:22:32;5.43;;;3.20;;
41693;SDS011;27377;50.666;9.150;2023-05-01T10:24:58;5.55;;;3.53;;
41693;SDS011;27377;50.666;9.150;2023-05-01T10:27:24;6.20;;;3.53;;
41693;SDS011;27377;50.666;9.150;2023-05-01T10:29:53;6.55;;;3.40;;
41693;SDS011;27377;50.666;9.150;2023-05-01T10:32:19;5.75;;;3.28;;
41693;SDS011;27377;50.666;9.150;2023-05-01T10:34:50;5.97;;;3.30;;
41693;SDS011;27377;50.666;9.150;2023-05-01T10:37:21;6.30;;;3.33;;
41693;SDS011;27377;50.666;9.150;2023-05-01T10:39:52;5.57;;;3.10;;
41693;SDS011;27377;50.666;9.150;2023-05-01T10:42:18;4.80;;;3.03;;
41693;SDS011;27377;50.666;9.150;2023-05-01T10:44:43;5.00;;;3.10;;
41693;SDS011;27377;50.666;9.150;2023-05-01T10:50:04;6.15;;;3.50;;
41693;SDS011;27377;50.666;9.150;2023-05-01T10:52:49;6.03;;;3.33;;
41693;SDS011;27377;50.666;9.150;2023-05-01T10:55:38;6.13;;;3.40;;
41693;SDS011;27377;50.666;9.150;2023-05-01T10:58:08;6.95;;;3.35;;
41693;SDS011;27377;50.666;9.150;2023-05-01T11:00:38;7.00;;;3.15;;
41693;SDS011;27377;50.666;9.150;2023-05-01T11:08:37;5.72;;;3.15;;
41693;SDS011;27377;50.666;9.150;2023-05-01T11:11:45;5.35;;;3.05;;
41693;SDS011;27377;50.666;9.150;2023-05-01T11:19:02;6.28;;;3.15;;
41693;SDS011;27377;50.666;9.150;2023-05-01T11:21:28;5.90;;;3.05;;
41693;SDS011;27377;50.666;9.150;2023-05-01T11:23:58;5.57;;;2.72;;
41693;SDS011;27377;50.666;9.150;2023-05-01T11:26:24;5.30;;;3.00;;
41693;SDS011;27377;50.666;9.150;2023-05-01T11:28:52;7.10;;;3.00;;
41693;SDS011;27377;50.666;9.150;2023-05-01T11:31:19;5.82;;;3.00;;
41693;SDS011;27377;50.666;9.150;2023-05-01T11:33:45;3.97;;;2.85;;
41693;SDS011;27377;50.666;9.150;2023-05-01T11:36:11;5.20;;;2.90;;
41693;SDS011;27377;50.666;9.150;2023-05-01T11:38:38;4.90;;;2.70;;
41693;SDS011;27377;50.666;9.150;2023-05-01T11:41:20;5.00;;;2.90;;
41693;SDS011;27377;50.666;9.150;2023-05-01T11:43:49;5.43;;;2.90;;
41693;SDS011;27377;50.666;9.150;2023-05-01T11:46:25;5.50;;;2.90;;
41693;SDS011;27377;50.666;9.150;2023-05-01T11:48:53;4.75;;;2.90;;
41693;SDS011;27377;50.666;9.150;2023-05-01T11:51:20;5.38;;;2.85;;
41693;SDS011;27377;50.666;9.150;2023-05-01T11:56:28;6.25;;;2.80;;
41693;SDS011;27377;50.666;9.150;2023-05-01T11:58:54;5.20;;;3.00;;
41693;SDS011;27377;50.666;9.150;2023-05-01T12:01:21;4.80;;;2.90;;
41693;SDS011;27377;50.666;9.150;2023-05-01T12:04:08;5.77;;;3.13;;
41693;SDS011;27377;50.666;9.150;2023-05-01T12:06:43;6.85;;;3.30;;
41693;SDS011;27377;50.666;9.150;2023-05-01T12:09:10;8.68;;;3.50;;
41693;SDS011;27377;50.666;9.150;2023-05-01T12:11:41;6.32;;;3.30;;
41693;SDS011;27377;50.666;9.150;2023-05-01T12:14:07;5.23;;;3.13;;
41693;SDS011;27377;50.666;9.150;2023-05-01T12:16:34;6.13;;;3.40;;
41693;SDS011;27377;50.666;9.150;2023-05-01T12:19:00;6.43;;;3.30;;
41693;SDS011;27377;50.666;9.150;2023-05-01T12:21:27;5.63;;;3.13;;
41693;SDS011;27377;50.666;9.150;2023-05-01T12:23:53;6.78;;;3.25;;
41693;SDS011;27377;50.666;9.150;2023-05-01T12:26:19;6.53;;;3.20;;
41693;SDS011;27377;50.666;9.150;2023-05-01T12:28:56;5.38;;;3.20;;
41693;SDS011;27377;50.666;9.150;2023-05-01T12:31:24;4.85;;;3.20;;
41693;SDS011;27377;50.666;9.150;2023-05-01T12:33:54;5.68;;;3.30;;
41693;SDS011;27377;50.666;9.150;2023-05-01T12:36:25;6.32;;;3.38;;
41693;SDS011;27377;50.666;9.150;2023-05-01T12:38:56;6.33;;;3.20;;
41693;SDS011;27377;50.666;9.150;2023-05-01T12:44:19;6.60;;;3.65;;
41693;SDS011;27377;50.666;9.150;2023-05-01T12:46:52;6.65;;;3.22;;
41693;SDS011;27377;50.666;9.150;2023-05-01T12:49:25;5.77;;;3.33;;
41693;SDS011;27377;50.666;9.150;2023-05-01T12:51:52;4.53;;;2.85;;
41693;SDS011;27377;50.666;9.150;2023-05-01T12:59:40;5.22;;;3.08;;
41693;SDS011;27377;50.666;9.150;2023-05-01T13:02:08;5.37;;;3.00;;
41693;SDS011;27377;50.666;9.150;2023-05-01T13:04:43;7.13;;;3.20;;
41693;SDS011;27377;50.666;9.150;2023-05-01T13:07:11;6.55;;;3.42;;
41693;SDS011;27377;50.666;9.150;2023-05-01T13:09:38;4.85;;;3.13;;
41693;SDS011;27377;50.666;9.150;2023-05-01T13:12:04;5.67;;;3.57;;
41693;SDS011;27377;50.666;9.150;2023-05-01T13:14:40;5.75;;;3.20;;
41693;SDS011;27377;50.666;9.150;2023-05-01T13:17:07;5.70;;;3.20;;
41693;SDS011;27377;50.666;9.150;2023-05-01T13:19:33;6.63;;;3.20;;
41693;SDS011;27377;50.666;9.150;2023-05-01T13:21:59;4.78;;;3.00;;
41693;SDS011;27377;50.666;9.150;2023-05-01T13:24:35;5.10;;;3.00;;
41693;SDS011;27377;50.666;9.150;2023-05-01T13:27:04;5.50;;;3.20;;
41693;SDS011;27377;50.666;9.150;2023-05-01T13:29:30;5.75;;;3.15;;
41693;SDS011;27377;50.666;9.150;2023-05-01T13:31:56;6.55;;;3.00;;
41693;SDS011;27377;50.666;9.150;2023-05-01T13:34:29;6.53;;;3.00;;
41693;SDS011;27377;50.666;9.150;2023-05-01T13:36:57;5.85;;;3.17;;
41693;SDS011;27377;50.666;9.150;2023-05-01T13:39:23;5.00;;;3.00;;
41693;SDS011;27377;50.666;9.150;2023-05-01T13:41:49;4.85;;;3.10;;
41693;SDS011;27377;50.666;9.150;2023-05-01T13:44:16;4.63;;;3.07;;
41693;SDS011;27377;50.666;9.150;2023-05-01T13:46:43;5.13;;;3.33;;
41693;SDS011;27377;50.666;9.150;2023-05-01T13:49:10;4.65;;;3.05;;
41693;SDS011;27377;50.666;9.150;2023-05-01T13:51:40;5.22;;;3.00;;
41693;SDS011;27377;50.666;9.150;2023-05-01T13:54:10;6.28;;;3.10;;
41693;SDS011;27377;50.666;9.150;2023-05-01T13:56:37;7.20;;;3.20;;
41693;SDS011;27377;50.666;9.150;2023-05-01T13:59:04;5.53;;;3.22;;
41693;SDS011;27377;50.666;9.150;2023-05-01T14:01:33;5.72;;;3.40;;
41693;SDS011;27377;50.666;9.150;2023-05-01T14:04:03;5.57;;;3.08;;
41693;SDS011;27377;50.666;9.150;2023-05-01T14:06:33;5.72;;;3.22;;
41693;SDS011;27377;50.666;9.150;2023-05-01T14:09:00;5.72;;;3.13;;
41693;SDS011;27377;50.666;9.150;2023-05-01T14:11:27;5.20;;;3.20;;
41693;SDS011;27377;50.666;9.150;2023-05-01T14:13:53;5.07;;;3.13;;
41693;SDS011;27377;50.666;9.150;2023-05-01T14:16:23;5.30;;;3.03;;
41693;SDS011;27377;50.666;9.150;2023-05-01T14:18:51;4.53;;;2.92;;
41693;SDS011;27377;50.666;9.150;2023-05-01T14:21:18;5.05;;;2.97;;
41693;SDS011;27377;50.666;9.150;2023-05-01T14:23:45;4.57;;;2.83;;
41693;SDS011;27377;50.666;9.150;2023-05-01T14:26:13;5.65;;;3.22;;
41693;SDS011;27377;50.666;9.150;2023-05-01T14:28:41;5.90;;;3.00;;
41693;SDS011;27377;50.666;9.150;2023-05-01T14:31:09;4.72;;;2.90;;
41693;SDS011;27377;50.666;9.150;2023-05-01T14:33:41;5.22;;;2.97;;
41693;SDS011;27377;50.666;9.150;2023-05-01T14:36:10;5.18;;;2.90;;
41693;SDS011;27377;50.666;9.150;2023-05-01T14:38:36;5.88;;;3.00;;
41693;SDS011;27377;50.666;9.150;2023-05-01T14:41:04;5.33;;;3.20;;
41693;SDS011;27377;50.666;9.150;2023-05-01T14:43:32;4.20;;;2.70;;
41693;SDS011;27377;50.666;9.150;2023-05-01T14:45:58;5.43;;;2.83;;
41693;SDS011;27377;50.666;9.150;2023-05-01T14:48:25;6.03;;;3.00;;
41693;SDS011;27377;50.666;9.150;2023-05-01T14:50:54;4.43;;;2.90;;
41693;SDS011;27377;50.666;9.150;2023-05-01T14:53:19;4.32;;;2.67;;
41693;SDS011;27377;50.666;9.150;2023-05-01T14:55:45;4.87;;;2.83;;
41693;SDS011;27377;50.666;9.150;2023-05-01T14:58:16;5.55;;;2.95;;
41693;SDS011;27377;50.666;9.150;2023-05-01T15:00:41;5.63;;;3.00;;
41693;SDS011;27377;50.666;9.150;2023-05-01T15:03:07;6.77;;;2.83;;
41693;SDS011;27377;50.666;9.150;2023-05-01T15:05:32;4.90;;;2.97;;
41693;SDS011;27377;50.666;9.150;2023-05-01T15:07:58;4.63;;;2.80;;
41693;SDS011;27377;50.666;9.150;2023-05-01T15:10:28;4.28;;;2.70;;
41693;SDS011;27377;50.666;9.150;2023-05-01T15:12:55;5.13;;;2.90;;
41693;SDS011;27377;50.666;9.150;2023-05-01T15:15:21;5.83;;;2.83;;
41693;SDS011;27377;50.666;9.150;2023-05-01T15:17:46;4.55;;;2.85;;
41693;SDS011;27377;50.666;9.150;2023-05-01T15:20:12;6.40;;;2.78;;
41693;SDS011;27377;50.666;9.150;2023-05-01T15:22:37;6.10;;;2.88;;
41693;SDS011;27377;50.666;9.150;2023-05-01T15:25:03;4.07;;;2.63;;
41693;SDS011;27377;50.666;9.150;2023-05-01T15:27:29;5.70;;;3.05;;